»·PEaware :: N5205X KPRB-KOXR

N5205X :: KPRB-KOXR

FLIGHT INFORMATION

Flight Status: Arrived
Operator: Privately registered:
United States
More flights under this callsign
Pilot: Martin B. (29991)
Aircraft: CIRRUS SR-22
(SR22)
More flights by this aircraft type
Origin: KPRB Paso Robles Mun
United States
Destination: KOXR Oxnard
United States
More flights between these airports :: More routes between these airports
Route: PRB1 PRB V25 DEANO
File this flight plan on PilotEdge
Remarks:
Altitude:
(Current/Filed)
9,000ft
Speed:
(Current/Filed)
160kts
Departed: 04-Aug-20 12:07 PM
Arrived: 04-Aug-20 01:09 PM
Distance/Time
Traveled:
113nm/1:02
Distance/Time
To Go:
Arrived

Flight Plot

Page will automatically refresh every two minutes.

Flight plan parsing failed; only flown route is shown


Map Options




Map Legend


Flown Route
Filed Route
Departure Airport
Arrival Airport
Navaid (VOR, NDB)
Fix

Horizontal Profiles

Position Reports

Time Latitude Longitude Heading Altitude Ground
Speed
04-Aug-20 11:54 35.669749 -120.637443 178 810ft 0kts
04-Aug-20 11:55 35.669749 -120.637443 178 810ft 0kts
04-Aug-20 11:56 35.669749 -120.637443 178 810ft 0kts
04-Aug-20 11:57 35.669749 -120.637443 178 810ft 0kts
04-Aug-20 11:58 35.669749 -120.637443 178 810ft 0kts
04-Aug-20 11:59 35.669749 -120.637443 178 810ft 0kts
04-Aug-20 12:00 35.669749 -120.637443 178 810ft 0kts
04-Aug-20 12:01 35.669749 -120.637443 178 810ft 0kts
04-Aug-20 12:02 35.667368 -120.637044 186 811ft 0kts
04-Aug-20 12:03 35.666602 -120.636579 142 812ft 0kts
04-Aug-20 12:04 35.666594 -120.636569 138 812ft 0kts
04-Aug-20 12:05 35.666403 -120.635353 35 813ft 8kts
04-Aug-20 12:06 35.684344 -120.622704 35 1817ft 87kts
04-Aug-20 12:07 35.705560 -120.609023 66 3110ft 98kts
04-Aug-20 12:08 35.684355 -120.590454 171 4016ft 118kts
04-Aug-20 12:09 35.650940 -120.584930 172 4839ft 121kts
04-Aug-20 12:10 35.617667 -120.575125 150 5392ft 135kts
04-Aug-20 12:11 35.586734 -120.548967 143 5862ft 127kts
04-Aug-20 12:12 35.558618 -120.523450 142 6544ft 122kts
04-Aug-20 12:13 35.531321 -120.498641 142 7234ft 120kts
04-Aug-20 12:14 35.504534 -120.474325 142 7925ft 118kts
04-Aug-20 12:15 35.477868 -120.450125 142 8434ft 136kts
04-Aug-20 12:16 35.445746 -120.421652 151 9003ft 149kts
04-Aug-20 12:17 35.405743 -120.395740 151 9004ft 169kts
04-Aug-20 12:18 35.363210 -120.368192 151 9000ft 172kts
04-Aug-20 12:19 35.320382 -120.340450 152 8999ft 173kts
04-Aug-20 12:20 35.277521 -120.312688 152 8999ft 173kts
04-Aug-20 12:21 35.234733 -120.284959 152 8999ft 173kts
04-Aug-20 12:22 35.191969 -120.257221 152 8999ft 173kts
04-Aug-20 12:23 35.149264 -120.229525 152 8999ft 173kts
04-Aug-20 12:24 35.106693 -120.201918 151 8999ft 173kts
04-Aug-20 12:25 35.084096 -120.151122 113 9000ft 173kts
04-Aug-20 12:26 35.051199 -120.109503 141 9000ft 173kts
04-Aug-20 12:27 35.013126 -120.073033 141 8999ft 173kts
04-Aug-20 12:28 34.975016 -120.036702 141 8999ft 173kts
04-Aug-20 12:29 34.936913 -120.000442 141 8999ft 173kts
04-Aug-20 12:30 34.898622 -119.964052 141 8999ft 173kts
04-Aug-20 12:31 34.860519 -119.927890 141 8999ft 173kts
04-Aug-20 12:32 34.822427 -119.891738 141 8999ft 173kts
04-Aug-20 12:33 34.784401 -119.855722 141 8999ft 173kts
04-Aug-20 12:34 34.746182 -119.819581 141 8999ft 173kts
04-Aug-20 12:35 34.707907 -119.783427 141 9000ft 174kts
04-Aug-20 12:36 34.669375 -119.747080 141 8999ft 174kts
04-Aug-20 12:37 34.630817 -119.710750 141 8999ft 174kts
04-Aug-20 12:38 34.592243 -119.674452 141 8999ft 174kts
04-Aug-20 12:39 34.553655 -119.638186 141 8999ft 174kts
04-Aug-20 12:40 34.515046 -119.601946 140 8999ft 174kts
04-Aug-20 12:41 34.476406 -119.565558 143 9000ft 174kts
04-Aug-20 12:42 34.437388 -119.529296 142 8999ft 175kts
04-Aug-20 12:43 34.398595 -119.492925 141 8999ft 174kts
04-Aug-20 12:44 34.359515 -119.456428 141 8290ft 173kts
04-Aug-20 12:45 34.321627 -119.421071 141 7384ft 171kts
04-Aug-20 12:46 34.293397 -119.374323 123 6482ft 172kts
04-Aug-20 12:47 34.280412 -119.321432 91 5566ft 169kts
04-Aug-20 12:48 34.279086 -119.263367 91 4681ft 174kts
04-Aug-20 12:49 34.277758 -119.204624 91 3921ft 168kts
04-Aug-20 12:50 34.276719 -119.158414 91 3934ft 126kts
04-Aug-20 12:51 34.275609 -119.111089 91 3997ft 147kts
04-Aug-20 12:52 34.274619 -119.066577 91 3891ft 103kts
04-Aug-20 12:53 34.274260 -119.022268 91 3941ft 152kts
04-Aug-20 12:54 34.273074 -118.969238 91 3928ft 160kts
04-Aug-20 12:55 34.271880 -118.915229 91 3926ft 161kts
04-Aug-20 12:56 34.248996 -118.876379 157 3929ft 160kts
04-Aug-20 12:57 34.207566 -118.855566 157 3926ft 160kts
04-Aug-20 12:58 34.167470 -118.847740 233 3888ft 124kts
04-Aug-20 12:59 34.174568 -118.874729 294 3555ft 89kts
04-Aug-20 13:00 34.182601 -118.905716 282 2607ft 91kts
04-Aug-20 13:01 34.191951 -118.935454 297 1744ft 95kts
04-Aug-20 13:02 34.200137 -118.971870 264 2401ft 126kts
04-Aug-20 13:03 34.193901 -119.022601 303 2525ft 163kts
04-Aug-20 13:04 34.199638 -119.070467 271 2564ft 158kts
04-Aug-20 13:05 34.200110 -119.116282 270 1432ft 111kts
04-Aug-20 13:06 34.200362 -119.148668 270 961ft 91kts
04-Aug-20 13:07 34.200641 -119.181539 269 504ft 98kts
04-Aug-20 13:08 34.200773 -119.206993 254 40ft 25kts
04-Aug-20 13:09 34.199803 -119.206410 89 40ft 16kts
04-Aug-20 13:10 34.199112 -119.199857 173 46ft 7kts
04-Aug-20 13:11 34.198636 -119.199293 267 45ft 0kts

Navigation Log

Ident Type
Flight plan parsing failed, navigation log unavailable